Tropical Cyclones
[Index]
Main Index Home Page Stock Weather Photos Extreme Storms Discussion Storm News and Storm Chasing Reports Tropical Cyclones / Hurricanes / Typhoons Weather Data and Links Wild Fires / Bushfires Weather Observation Techniques Weather Picture Catalogue Tornado Pictures and Reports Stock Video Footage and DVDs for sale
Season 1977-1978 Tropical Cyclone 197832 Track Map
Season 1977-1978 Summaries: [BoM-AU] [JTWC-AU] [JTWC-SIO] [JTWC-SPAC] [JTWC-SH]
<<- Previous TC | JTWC 1977-1978 Season | Next TC ->>

click for intensity scale information  Lat/long Grid: Show Hide

 Date Labels: Show Hide

Joint Typhoon Warning Centre Cyclone Data

Name: 197832
Number: 988 / 7832

05 Apr 1978 00:00 UTC to 17 Apr 1978 00:00 UTC

    date/time    lat    long     hPa   cat  kts
1978-04-05 00   11.5   135.5                              
1978-04-05 06   11.9   136.2                              
1978-04-05 12   12.2   136.8                              
1978-04-05 18   12.5   137.4                              
1978-04-06 00   12.7   138.0                              
1978-04-06 06   12.8   138.6                              
1978-04-06 12   12.8   139.2                              
1978-04-06 18   12.9   139.6                              
1978-04-07 00   13.0   140.2                              
1978-04-07 06   13.9   141.8                              
1978-04-07 12   15.0   143.8                              
1978-04-07 18   15.4   145.7                              
1978-04-08 00   15.8   147.0                              
1978-04-08 06   16.3   147.5                              
1978-04-08 12   16.8   147.8                              
1978-04-08 18   17.2   148.1                              
1978-04-09 00   17.5   148.5                              
1978-04-09 06   17.6   149.2                              
1978-04-09 12   17.7   150.1                              
1978-04-09 18   17.7   151.1                              
1978-04-10 00   17.7   152.0                              
1978-04-10 06   17.8   152.6                              
1978-04-10 12   18.1   153.1                              
1978-04-10 18   18.5   153.5                              
1978-04-11 00   19.0   153.8                              
1978-04-11 06   19.4   153.9                              
1978-04-11 12   19.9   153.9                              
1978-04-11 18   20.3   153.6                              
1978-04-12 00   20.8   153.5                              
1978-04-12 06   21.6   154.6                              
1978-04-12 12   22.5   156.0                              
1978-04-12 18   22.9   156.9                              
1978-04-13 00   23.5   158.0                              
1978-04-13 06   24.8   160.0                              
1978-04-13 12   26.2   162.3                              
1978-04-13 18   27.5   164.0                              
1978-04-14 00   28.6   165.3                              
1978-04-14 06   29.4   166.0                              
1978-04-14 12   30.1   166.5                              
1978-04-14 18   30.8   166.8                              
1978-04-15 00   31.5   166.9                              
1978-04-15 06   32.4   166.7                              
1978-04-15 12   33.3   166.2                              
1978-04-15 18   33.8   165.1                              
1978-04-16 00   34.0   164.0                              
1978-04-16 06   33.5   164.1                              
1978-04-16 12   33.0   165.0                              
1978-04-16 18   33.2   166.3                              
1978-04-17 00   34.0   168.0                              
Winds are 1-min average.

Tropical cyclone tracks developed by Michael Bath using data from the Joint Typhoon Warning Centre Best Tracks and Google Maps.


[Australian Severe Weather index] [Copyright Notice] [Email Contacts] [Search This Site] [Privacy Policy]
Document: tropical_cyclone_197832.htm Updated: 18 September 2016